Terminal Aerodrome Forecast
Issued by NWS Binghamton, NY

Home | Current Version | Previous Version | Text Only | Print | Product List | Glossary On
Versions: 1 2 3 4 5 6 7 8 9 10 11 12 13 14 15 16 17 18 19 20 21 22 23 24 25 26
450
FTUS41 KBGM 152329
TAFBGM
TAF
KBGM 152329Z 1600/1624 21005KT P6SM BKN100
     FM161200 25008KT P6SM SCT040 OVC070
     FM161600 29011KT P6SM -SHSN OVC035=

USA.gov is the U.S. government's official web portal to all federal, state and local government web resources and services.